createdAt,value
2019-05-11T00:01:07.569Z,63.87
2019-05-11T00:03:41.282Z,64.04
2019-05-11T00:06:14.988Z,63.15
2019-05-11T00:08:48.789Z,63.15
2019-05-11T00:11:22.489Z,63.76
2019-05-11T00:13:56.206Z,64.70
2019-05-11T00:16:29.927Z,64.70
2019-05-11T00:19:03.637Z,63.43
2019-05-11T00:21:37.356Z,63.43
2019-05-11T00:24:11.075Z,63.24
2019-05-11T00:26:44.810Z,63.24
2019-05-11T00:29:18.501Z,62.46
2019-05-11T00:31:52.209Z,63.39
2019-05-11T00:34:25.945Z,63.32
2019-05-11T00:36:59.663Z,63.09
2019-05-11T00:39:33.367Z,63.09
2019-05-11T00:42:07.085Z,63.03
2019-05-11T00:44:40.783Z,63.03
2019-05-11T00:47:14.499Z,63.21
2019-05-11T00:49:48.203Z,63.21
2019-05-11T00:52:21.925Z,63.35
2019-05-11T00:54:55.648Z,62.24
2019-05-11T00:57:29.345Z,63.13
2019-05-11T01:00:03.937Z,63.16
2019-05-11T01:02:37.658Z,63.16
2019-05-11T01:05:11.389Z,62.82
2019-05-11T01:07:45.079Z,63.19
2019-05-11T01:10:25.590Z,63.34
2019-05-11T01:12:55.189Z,62.62
2019-05-11T01:15:28.897Z,62.62
2019-05-11T01:18:02.617Z,62.86
2019-05-11T01:20:36.343Z,62.86
2019-05-11T01:23:10.062Z,62.44
2019-05-11T01:25:44.050Z,62.85
2019-05-11T01:28:17.760Z,64.00
2019-05-11T01:30:51.477Z,64.00
2019-05-11T01:33:25.329Z,62.75
2019-05-11T01:35:59.041Z,62.75
2019-05-11T01:38:32.771Z,62.86
2019-05-11T01:41:06.474Z,62.84
2019-05-11T01:43:41.260Z,63.90
2019-05-11T01:46:16.439Z,63.48
2019-05-11T01:48:50.175Z,64.59
2019-05-11T01:51:23.896Z,64.59
2019-05-11T01:53:57.614Z,63.59
2019-05-11T01:56:31.322Z,63.30
2019-05-11T01:59:05.949Z,64.76
2019-05-11T02:01:39.652Z,63.27
2019-05-11T02:04:13.354Z,63.27
2019-05-11T02:06:47.079Z,63.70
2019-05-11T02:09:21.602Z,63.70
2019-05-11T02:11:55.325Z,63.20
2019-05-11T02:14:29.028Z,63.20
2019-05-11T02:17:02.736Z,63.07
2019-05-11T02:19:36.466Z,62.36
2019-05-11T02:22:10.191Z,62.36
2019-05-11T02:24:43.907Z,63.17
2019-05-11T02:27:17.621Z,63.17
2019-05-11T02:29:51.338Z,64.74
2019-05-11T02:32:25.037Z,64.74
2019-05-11T02:34:58.763Z,63.36
2019-05-11T02:37:32.480Z,64.51
2019-05-11T02:40:06.273Z,63.34
2019-05-11T02:42:40.237Z,63.34
2019-05-11T02:45:16.850Z,63.80
2019-05-11T02:47:50.565Z,64.36
2019-05-11T02:50:24.272Z,64.36
2019-05-11T02:52:58.046Z,63.56
2019-05-11T02:55:33.212Z,63.77
2019-05-11T02:58:07.006Z,64.02
2019-05-11T03:00:42.201Z,64.02
2019-05-11T03:03:15.921Z,63.45
2019-05-11T03:05:49.619Z,63.10
2019-05-11T03:08:23.866Z,62.89
2019-05-11T03:10:57.617Z,62.71
2019-05-11T03:13:31.304Z,63.03
2019-05-11T03:16:05.003Z,62.64
2019-05-11T03:18:38.728Z,63.06
2019-05-11T03:21:13.445Z,63.06
2019-05-11T03:23:47.183Z,63.02
2019-05-11T03:26:20.912Z,63.02
2019-05-11T03:28:54.609Z,63.21
2019-05-11T03:31:28.327Z,63.15
2019-05-11T03:34:02.051Z,63.15
2019-05-11T03:36:35.745Z,62.89
2019-05-11T03:39:09.456Z,62.89
2019-05-11T03:41:43.214Z,62.52
2019-05-11T03:44:16.954Z,62.52
2019-05-11T03:46:50.676Z,63.00
2019-05-11T03:49:24.384Z,63.32
2019-05-11T03:51:58.084Z,63.70
2019-05-11T03:54:31.786Z,63.12
2019-05-11T03:57:05.498Z,63.12
2019-05-11T03:59:39.221Z,65.27
2019-05-11T04:02:13.738Z,65.27
2019-05-11T04:04:47.432Z,63.88
2019-05-11T04:07:21.126Z,64.11
2019-05-11T04:09:54.864Z,64.11
2019-05-11T04:12:34.947Z,64.03
2019-05-11T04:15:05.978Z,64.88
2019-05-11T04:17:39.760Z,63.38
2019-05-11T04:20:13.758Z,63.38
2019-05-11T04:22:47.466Z,63.99
2019-05-11T04:25:21.182Z,63.99
2019-05-11T04:27:54.881Z,63.20
2019-05-11T04:30:28.605Z,62.72
2019-05-11T04:33:02.368Z,63.45
2019-05-11T04:35:36.084Z,62.80
2019-05-11T04:38:09.792Z,63.11
2019-05-11T04:40:43.521Z,63.11
2019-05-11T04:43:17.232Z,64.21
2019-05-11T04:45:51.278Z,64.06
2019-05-11T04:48:24.973Z,64.06
2019-05-11T04:50:58.720Z,64.44
2019-05-11T04:53:32.411Z,64.55
2019-05-11T04:56:06.110Z,63.13
2019-05-11T04:58:39.827Z,63.90
2019-05-11T05:01:13.550Z,63.75
2019-05-11T05:03:53.758Z,63.35
2019-05-11T05:06:24.497Z,63.00
2019-05-11T05:09:03.032Z,62.83
2019-05-11T05:11:36.851Z,62.35
2019-05-11T05:14:10.353Z,62.35
2019-05-11T05:16:44.254Z,64.56
2019-05-11T05:19:17.985Z,62.93
2019-05-11T05:21:51.710Z,62.73
2019-05-11T05:24:25.454Z,62.61
2019-05-11T05:26:59.213Z,63.31
2019-05-11T05:29:32.922Z,63.31
2019-05-11T05:32:06.647Z,63.77
2019-05-11T05:34:40.337Z,63.63
2019-05-11T05:37:14.053Z,63.63
2019-05-11T05:39:47.756Z,63.66
2019-05-11T05:42:21.450Z,62.75
2019-05-11T05:44:55.164Z,63.82
2019-05-11T05:47:28.861Z,62.34
2019-05-11T05:50:03.303Z,63.65
2019-05-11T05:52:37.105Z,63.65
2019-05-11T05:55:10.917Z,62.67
2019-05-11T05:57:44.644Z,63.27
2019-05-11T06:00:18.346Z,62.97
2019-05-11T06:02:52.125Z,62.72
2019-05-11T06:05:25.866Z,62.37
2019-05-11T06:07:59.594Z,62.58
2019-05-11T06:10:33.319Z,63.15
2019-05-11T06:13:07.009Z,62.22
2019-05-11T06:15:40.793Z,63.00
2019-05-11T06:18:14.503Z,62.84
2019-05-11T06:20:48.243Z,62.42
2019-05-11T06:23:21.945Z,62.49
2019-05-11T06:25:55.680Z,62.49
2019-05-11T06:28:29.382Z,63.23
2019-05-11T06:31:03.126Z,63.23
2019-05-11T06:33:36.815Z,62.24
2019-05-11T06:36:10.527Z,61.56
2019-05-11T06:38:44.242Z,61.56
2019-05-11T06:41:17.969Z,62.41
2019-05-11T06:44:01.286Z,62.41
2019-05-11T06:46:27.069Z,61.17
2019-05-11T06:49:00.786Z,61.90
2019-05-11T06:51:34.483Z,61.55
2019-05-11T06:54:08.195Z,61.52
2019-05-11T06:56:41.911Z,61.97
2019-05-11T06:59:15.640Z,61.44
2019-05-11T07:01:49.332Z,61.28
2019-05-11T07:04:23.055Z,60.99
2019-05-11T07:06:56.759Z,59.98
2019-05-11T07:09:30.475Z,59.72
2019-05-11T07:12:04.233Z,59.72
2019-05-11T07:14:37.998Z,61.27
2019-05-11T07:17:11.708Z,59.96
2019-05-11T07:19:47.497Z,59.66
2019-05-11T07:22:20.838Z,60.79
2019-05-11T07:24:54.694Z,61.20
2019-05-11T07:27:28.398Z,59.92
2019-05-11T07:30:02.576Z,59.43
2019-05-11T07:32:38.170Z,59.53
2019-05-11T07:35:11.683Z,59.50
2019-05-11T07:37:47.704Z,59.50
2019-05-11T07:40:20.808Z,58.11
2019-05-11T07:42:54.521Z,58.45
2019-05-11T07:45:28.943Z,58.45
2019-05-11T07:48:02.656Z,57.73
2019-05-11T07:50:38.516Z,57.83
2019-05-11T07:53:11.791Z,57.83
2019-05-11T07:55:45.507Z,58.45
2019-05-11T07:58:20.229Z,58.47
2019-05-11T08:00:54.411Z,57.62
2019-05-11T08:03:28.467Z,58.42
2019-05-11T08:06:02.900Z,58.15
2019-05-11T08:08:38.502Z,58.13
2019-05-11T08:11:13.288Z,58.13
2019-05-11T08:13:48.061Z,58.16
2019-05-11T08:16:22.113Z,57.40
2019-05-11T08:18:58.617Z,57.34
2019-05-11T08:21:31.420Z,57.19
2019-05-11T08:24:05.149Z,57.09
2019-05-11T08:26:38.876Z,57.09
2019-05-11T08:29:13.417Z,57.46
2019-05-11T08:31:48.796Z,57.42
2019-05-11T08:34:22.735Z,57.42
2019-05-11T08:36:58.454Z,57.67
2019-05-11T08:39:31.829Z,56.56
2019-05-11T08:42:05.545Z,56.87
2019-05-11T08:44:39.259Z,56.25
2019-05-11T08:47:13.443Z,56.25
2019-05-11T08:49:48.454Z,56.35
2019-05-11T08:52:22.340Z,56.35
2019-05-11T08:54:57.765Z,55.73
2019-05-11T08:57:31.759Z,55.09
2019-05-11T09:00:08.392Z,55.90
2019-05-11T09:02:41.979Z,57.72
2019-05-11T09:05:15.667Z,57.72
2019-05-11T09:07:49.382Z,56.10
2019-05-11T09:10:23.085Z,54.46
2019-05-11T09:12:58.874Z,54.75
2019-05-11T09:15:37.122Z,54.10
2019-05-11T09:18:08.456Z,54.10
2019-05-11T09:20:42.313Z,55.42
2019-05-11T09:23:30.921Z,55.42
2019-05-11T09:25:51.402Z,54.32
2019-05-11T09:28:25.130Z,54.32
2019-05-11T09:30:58.810Z,55.00
2019-05-11T09:33:32.806Z,55.00
2019-05-11T09:36:08.581Z,55.81
2019-05-11T09:38:41.917Z,54.32
2019-05-11T09:41:17.604Z,54.29
2019-05-11T09:43:51.042Z,54.13
2019-05-11T09:46:24.729Z,54.13
2019-05-11T09:48:59.196Z,53.01
2019-05-11T09:51:32.998Z,53.01
2019-05-11T09:54:07.870Z,54.27
2019-05-11T09:56:41.773Z,54.98
2019-05-11T09:59:17.716Z,53.40
2019-05-11T10:01:50.874Z,53.39
2019-05-11T10:04:24.580Z,53.89
2019-05-11T10:06:58.648Z,50.82
2019-05-11T10:09:32.464Z,50.82
2019-05-11T10:12:08.177Z,52.62
2019-05-11T10:14:41.576Z,52.62
2019-05-11T10:17:15.299Z,49.89
2019-05-11T10:19:49.684Z,50.71
2019-05-11T10:22:23.598Z,49.83
2019-05-11T10:24:58.275Z,51.64
2019-05-11T10:27:32.189Z,49.83
2019-05-11T10:30:08.776Z,49.83
2019-05-11T10:32:42.490Z,50.98
2019-05-11T10:35:18.183Z,49.86
2019-05-11T10:37:51.587Z,50.08
2019-05-11T10:40:25.319Z,50.17
2019-05-11T10:42:59.214Z,50.92
2019-05-11T10:45:32.981Z,48.54
2019-05-11T10:48:08.846Z,50.38
2019-05-11T10:50:42.542Z,50.38
2019-05-11T10:53:18.322Z,49.21
2019-05-11T10:55:51.677Z,49.75
2019-05-11T10:58:25.374Z,50.36
2019-05-11T11:00:59.087Z,49.23
2019-05-11T11:03:32.797Z,49.70
2019-05-11T11:06:08.475Z,49.49
2019-05-11T11:08:41.937Z,49.49
2019-05-11T11:11:15.633Z,47.46
2019-05-11T11:13:49.348Z,47.46
2019-05-11T11:16:35.509Z,48.75
2019-05-11T11:18:58.909Z,48.37
2019-05-11T11:21:32.828Z,48.37
2019-05-11T11:24:07.681Z,46.52
2019-05-11T11:26:41.547Z,46.93
2019-05-11T11:29:15.256Z,46.93
2019-05-11T11:31:48.972Z,47.81
2019-05-11T11:34:22.678Z,48.04
2019-05-11T11:36:58.000Z,48.38
2019-05-11T11:39:32.003Z,48.38
2019-05-11T11:42:05.710Z,47.57
2019-05-11T11:44:39.504Z,48.40
2019-05-11T11:47:18.865Z,48.40
2019-05-11T11:49:50.340Z,46.25
2019-05-11T11:52:24.050Z,46.97
2019-05-11T11:54:58.635Z,46.42
2019-05-11T11:57:32.593Z,46.42
2019-05-11T12:02:41.233Z,47.71
2019-05-11T12:05:14.930Z,46.05
2019-05-11T12:07:49.164Z,45.34
2019-05-11T12:10:23.022Z,45.34
2019-05-11T12:12:58.145Z,46.43
2019-05-11T12:15:32.028Z,46.43
2019-05-11T12:18:08.089Z,46.79
2019-05-11T12:20:41.202Z,45.09
2019-05-11T12:23:34.304Z,43.17
2019-05-11T12:26:08.631Z,43.17
2019-05-11T12:28:42.389Z,45.13
2019-05-11T12:31:18.300Z,42.41
2019-05-11T12:33:51.499Z,43.42
2019-05-11T12:36:25.207Z,43.42
2019-05-11T12:38:58.911Z,42.48
2019-05-11T12:41:32.605Z,42.33
2019-05-11T12:44:08.288Z,42.34
2019-05-11T12:46:41.718Z,43.13
2019-05-11T12:49:15.439Z,42.96
2019-05-11T12:51:49.202Z,42.72
2019-05-11T12:54:22.921Z,42.19
2019-05-11T12:56:57.906Z,41.87
2019-05-11T12:59:31.935Z,41.87
2019-05-11T13:02:08.035Z,41.51
2019-05-11T13:04:41.023Z,42.73
2019-05-11T13:07:16.709Z,42.51
2019-05-11T13:09:50.123Z,42.66
2019-05-11T13:12:23.819Z,43.40
2019-05-11T13:14:58.107Z,42.84
2019-05-11T13:17:37.335Z,42.84
2019-05-11T13:20:08.693Z,42.15
2019-05-11T13:22:42.852Z,42.70
2019-05-11T13:25:17.722Z,40.56
2019-05-11T13:27:51.629Z,40.88
2019-05-11T13:30:27.646Z,39.69
2019-05-11T13:33:00.752Z,38.04
2019-05-11T13:35:34.475Z,38.04
2019-05-11T13:38:08.826Z,37.34
2019-05-11T13:40:43.760Z,38.05
2019-05-11T13:43:18.872Z,38.05
2019-05-11T13:45:52.776Z,36.10
2019-05-11T13:48:28.159Z,37.82
2019-05-11T13:51:01.941Z,37.26
2019-05-11T13:53:37.529Z,37.11
2019-05-11T13:56:11.032Z,37.11
2019-05-11T13:58:44.718Z,36.52
2019-05-11T14:01:18.733Z,36.52
2019-05-11T14:03:52.594Z,38.04
2019-05-11T14:06:28.744Z,37.28
2019-05-11T14:09:01.700Z,35.85
2019-05-11T14:11:35.405Z,36.46
2019-05-11T14:14:09.109Z,36.41
2019-05-11T14:16:42.798Z,36.23
2019-05-11T14:19:17.963Z,33.47
2019-05-11T14:21:51.989Z,31.61
2019-05-11T14:24:25.685Z,33.37
2019-05-11T14:26:59.393Z,34.55
2019-05-11T14:29:33.155Z,34.55
2019-05-11T14:32:08.565Z,31.71
2019-05-11T14:34:42.437Z,34.67
2019-05-11T14:37:18.097Z,34.05
2019-05-11T14:39:51.563Z,34.05
2019-05-11T14:42:25.257Z,32.85
2019-05-11T14:44:59.191Z,34.26
2019-05-11T14:47:32.955Z,34.26
2019-05-11T14:50:08.587Z,34.24
2019-05-11T14:52:42.507Z,34.24
2019-05-11T14:55:18.385Z,33.49
2019-05-11T14:57:51.601Z,32.69
2019-05-11T15:00:25.304Z,32.69
2019-05-11T15:02:59.007Z,34.35
2019-05-11T15:05:32.716Z,33.80
2019-05-11T15:08:08.584Z,31.46
2019-05-11T15:10:41.963Z,33.98
2019-05-11T15:13:15.676Z,30.90
2019-05-11T15:15:49.370Z,30.90
2019-05-11T15:18:35.364Z,34.83
2019-05-11T15:20:58.466Z,31.91
2019-05-11T15:23:32.164Z,32.09
2019-05-11T15:26:07.884Z,31.99
2019-05-11T15:28:41.272Z,29.81
2019-05-11T15:31:14.968Z,29.81
2019-05-11T15:33:49.038Z,30.23
2019-05-11T15:36:22.846Z,29.95
2019-05-11T15:38:58.297Z,30.01
2019-05-11T15:41:32.145Z,30.09
2019-05-11T15:44:05.892Z,30.09
2019-05-11T15:46:39.608Z,29.46
2019-05-11T15:49:13.378Z,27.30
2019-05-11T15:51:48.869Z,27.30
2019-05-11T15:54:22.500Z,28.00
2019-05-11T15:56:59.704Z,27.01
2019-05-11T15:59:31.637Z,25.70
2019-05-11T16:02:05.381Z,28.12
2019-05-11T16:04:41.419Z,27.70
2019-05-11T16:07:14.534Z,27.70
2019-05-11T16:09:48.813Z,30.12
2019-05-11T16:12:22.642Z,31.07
2019-05-11T16:14:58.019Z,30.60
2019-05-11T16:17:31.823Z,30.60
2019-05-11T16:20:09.030Z,31.38
2019-05-11T16:22:42.734Z,31.38
2019-05-11T16:25:19.289Z,31.52
2019-05-11T16:27:51.838Z,32.91
2019-05-11T16:30:28.579Z,33.26
2019-05-11T16:33:01.479Z,33.26
2019-05-11T16:35:35.225Z,35.81
2019-05-11T16:38:10.920Z,35.81
2019-05-11T16:40:44.751Z,35.25
2019-05-11T16:43:19.273Z,36.34
2019-05-11T16:45:53.171Z,36.73
2019-05-11T16:48:27.679Z,36.73
2019-05-11T16:51:01.540Z,34.94
2019-05-11T16:53:35.929Z,34.94
2019-05-11T16:56:09.949Z,34.77
2019-05-11T16:58:44.557Z,35.41
2019-05-11T17:01:18.778Z,36.58
2019-05-11T17:03:52.675Z,36.58
2019-05-11T17:06:28.539Z,37.45
2019-05-11T17:09:01.782Z,37.45
2019-05-11T17:11:38.074Z,39.76
2019-05-11T17:14:10.879Z,39.41
2019-05-11T17:16:44.598Z,40.66
2019-05-11T17:19:18.542Z,40.66
2019-05-11T17:21:52.287Z,40.18
2019-05-11T17:24:28.200Z,40.03
2019-05-11T17:27:01.388Z,40.16
2019-05-11T17:29:35.104Z,39.96
2019-05-11T17:32:08.801Z,40.78
2019-05-11T17:34:42.501Z,40.78
2019-05-11T17:37:18.292Z,40.47
2019-05-11T17:39:51.586Z,39.80
2019-05-11T17:42:25.295Z,39.94
2019-05-11T17:44:59.054Z,39.94
2019-05-11T17:47:32.758Z,41.07
2019-05-11T17:50:08.084Z,41.83
2019-05-11T17:52:42.074Z,41.78
2019-05-11T17:55:18.119Z,41.78
2019-05-11T17:57:53.927Z,41.47
2019-05-11T18:00:28.391Z,41.47
2019-05-11T18:03:01.986Z,41.61
2019-05-11T18:05:37.864Z,42.73
2019-05-11T18:08:11.101Z,44.20
2019-05-11T18:10:44.877Z,44.20
2019-05-11T18:13:18.608Z,44.21
2019-05-11T18:15:52.318Z,43.79
2019-05-11T18:18:28.892Z,43.79
2019-05-11T18:21:01.500Z,43.51
2019-05-11T18:23:35.192Z,43.78
2019-05-11T18:26:08.987Z,44.41
2019-05-11T18:28:42.696Z,44.41
2019-05-11T18:31:18.187Z,43.92
2019-05-11T18:33:51.789Z,44.04
2019-05-11T18:36:25.578Z,44.04
2019-05-11T18:38:59.274Z,44.89
2019-05-11T18:41:32.971Z,45.69
2019-05-11T18:44:08.250Z,45.69
2019-05-11T18:46:42.157Z,45.75
2019-05-11T18:49:17.718Z,45.79
2019-05-11T18:51:51.277Z,45.15
2019-05-11T18:54:24.972Z,45.15
2019-05-11T18:56:58.955Z,45.36
2019-05-11T18:59:32.749Z,45.36
2019-05-11T19:02:08.435Z,45.50
2019-05-11T19:04:41.857Z,45.98
2019-05-11T19:07:17.248Z,45.98
2019-05-11T19:09:50.986Z,46.03
2019-05-11T19:12:24.667Z,45.77
2019-05-11T19:14:58.765Z,47.02
2019-05-11T19:17:32.541Z,47.32
2019-05-11T19:20:08.424Z,47.68
2019-05-11T19:22:42.308Z,47.68
2019-05-11T19:25:18.087Z,48.08
2019-05-11T19:27:51.406Z,49.21
2019-05-11T19:30:25.089Z,48.97
2019-05-11T19:32:59.103Z,48.97
2019-05-11T19:35:32.812Z,48.29
2019-05-11T19:38:08.469Z,49.17
2019-05-11T19:40:41.931Z,49.71
2019-05-11T19:43:15.623Z,49.71
2019-05-11T19:45:49.325Z,50.22
2019-05-11T19:48:23.037Z,50.42
2019-05-11T19:51:06.619Z,51.36
2019-05-11T19:53:32.390Z,51.36
2019-05-11T19:56:07.770Z,52.02
2019-05-11T19:58:41.671Z,51.12
2019-05-11T20:01:15.365Z,51.12
2019-05-11T20:03:49.075Z,51.58
2019-05-11T20:06:22.772Z,51.94
2019-05-11T20:08:58.142Z,52.85
2019-05-11T20:11:31.958Z,52.85
2019-05-11T20:14:07.907Z,51.72
2019-05-11T20:16:41.094Z,52.17
2019-05-11T20:19:14.816Z,52.17
2019-05-11T20:21:48.630Z,53.47
2019-05-11T20:24:41.773Z,54.03
2019-05-11T20:27:15.490Z,54.03
2019-05-11T20:29:49.201Z,53.66
2019-05-11T20:32:22.890Z,51.42
2019-05-11T20:34:57.853Z,51.38
2019-05-11T20:37:31.691Z,52.16
2019-05-11T20:40:05.634Z,53.72
2019-05-11T20:42:39.329Z,53.41
2019-05-11T20:45:13.389Z,53.41
2019-05-11T20:47:48.737Z,55.86
2019-05-11T20:50:23.165Z,55.86
2019-05-11T20:52:58.784Z,53.70
2019-05-11T20:55:34.473Z,54.64
2019-05-11T20:58:11.505Z,54.64
2019-05-11T21:00:45.581Z,55.32
2019-05-11T21:03:19.616Z,56.53
2019-05-11T21:05:58.472Z,56.53
2019-05-11T21:08:31.841Z,55.85
2019-05-11T21:11:08.658Z,55.13
2019-05-11T21:13:43.129Z,55.99
2019-05-11T21:16:18.041Z,55.99
2019-05-11T21:18:52.054Z,55.59
2019-05-11T21:21:28.175Z,55.59
2019-05-11T21:24:01.612Z,56.88
2019-05-11T21:26:35.674Z,56.61
2019-05-11T21:29:09.570Z,56.61
2019-05-11T21:31:43.542Z,56.66
2019-05-11T21:34:18.817Z,56.18
2019-05-11T21:36:55.480Z,56.18
2019-05-11T21:39:32.030Z,54.77
2019-05-11T21:42:09.920Z,55.79
2019-05-11T21:44:45.437Z,56.29
2019-05-11T21:47:19.259Z,56.23
2019-05-11T21:49:53.349Z,56.23
2019-05-11T21:52:28.758Z,56.30
2019-05-11T21:55:04.002Z,58.51
2019-05-11T21:57:38.069Z,57.39
2019-05-11T22:00:18.662Z,56.26
2019-05-11T22:02:53.686Z,56.26
2019-05-11T22:05:28.853Z,56.07
2019-05-11T22:08:03.963Z,57.96
2019-05-11T22:10:38.530Z,58.93
2019-05-11T22:13:12.515Z,58.93
2019-05-11T22:15:48.497Z,59.95
2019-05-11T22:18:31.060Z,59.77
2019-05-11T22:20:57.964Z,61.40
2019-05-11T22:23:31.867Z,61.50
2019-05-11T22:26:07.617Z,61.50
2019-05-11T22:28:40.965Z,62.34
2019-05-11T22:31:15.016Z,62.34
2019-05-11T22:33:48.706Z,62.22
2019-05-11T22:36:22.485Z,63.26
2019-05-11T22:38:58.138Z,62.47
2019-05-11T22:41:31.568Z,61.44
2019-05-11T22:44:05.251Z,60.62
2019-05-11T22:46:38.950Z,60.86
2019-05-11T22:49:12.643Z,62.22
2019-05-11T22:51:46.335Z,63.23
2019-05-11T22:54:20.044Z,63.23
2019-05-11T22:56:53.759Z,62.83
2019-05-11T22:59:28.049Z,63.63
2019-05-11T23:02:01.934Z,63.63
2019-05-11T23:04:38.059Z,62.83
2019-05-11T23:07:11.274Z,62.83
2019-05-11T23:09:44.974Z,62.20
2019-05-11T23:12:18.673Z,62.57
2019-05-11T23:14:52.373Z,62.18
2019-05-11T23:17:27.964Z,63.17
2019-05-11T23:20:01.530Z,63.17
2019-05-11T23:22:51.001Z,64.00
2019-05-11T23:25:10.636Z,63.22
2019-05-11T23:27:44.405Z,62.50
2019-05-11T23:30:19.640Z,62.50
2019-05-11T23:32:53.478Z,62.74
2019-05-11T23:35:28.557Z,61.94
2019-05-11T23:38:02.285Z,63.06
2019-05-11T23:40:37.884Z,63.06
2019-05-11T23:43:11.391Z,62.29
2019-05-11T23:45:45.083Z,63.46
2019-05-11T23:48:18.776Z,63.46
2019-05-11T23:50:52.472Z,63.97
2019-05-11T23:53:28.232Z,64.07
2019-05-11T23:56:01.738Z,64.07
2019-05-11T23:58:35.516Z,63.63
